createdAt,value
2018-05-12T00:01:07.570Z,12.20
2018-05-12T00:03:35.131Z,12.20
2018-05-12T00:06:02.711Z,12.10
2018-05-12T00:08:32.182Z,12.10
2018-05-12T00:10:59.755Z,12.10
2018-05-12T00:13:27.314Z,12.10
2018-05-12T00:15:54.883Z,12.00
2018-05-12T00:18:23.443Z,11.90
2018-05-12T00:20:51.118Z,11.90
2018-05-12T00:23:18.672Z,11.80
2018-05-12T00:25:46.232Z,11.80
2018-05-12T00:28:13.780Z,11.70
2018-05-12T00:30:42.287Z,11.70
2018-05-12T00:33:09.832Z,11.70
2018-05-12T00:35:37.402Z,11.70
2018-05-12T00:38:04.953Z,11.70
2018-05-12T00:40:32.517Z,11.80
2018-05-12T00:43:00.139Z,11.80
2018-05-12T00:45:27.660Z,11.70
2018-05-12T00:47:55.256Z,11.60
2018-05-12T00:50:22.782Z,11.60
2018-05-12T00:52:50.335Z,11.60
2018-05-12T00:55:17.903Z,11.60
2018-05-12T00:57:45.459Z,11.60
2018-05-12T01:00:13.028Z,11.60
2018-05-12T01:02:40.615Z,11.50
2018-05-12T01:05:13.750Z,11.40
2018-05-12T01:07:41.298Z,11.50
2018-05-12T01:10:08.858Z,11.50
2018-05-12T01:12:36.394Z,11.50
2018-05-12T01:15:04.718Z,11.50
2018-05-12T01:17:32.245Z,11.50
2018-05-12T01:19:59.821Z,11.50
2018-05-12T01:22:27.373Z,11.50
2018-05-12T01:24:54.950Z,11.50
2018-05-12T01:27:22.496Z,11.40
2018-05-12T01:29:50.083Z,11.40
2018-05-12T01:32:20.776Z,11.50
2018-05-12T01:34:48.345Z,11.50
2018-05-12T01:37:15.896Z,11.50
2018-05-12T01:39:43.453Z,11.50
2018-05-12T01:42:12.052Z,11.40
2018-05-12T01:44:39.626Z,11.40
2018-05-12T01:47:07.195Z,11.40
2018-05-12T01:49:34.747Z,11.40
2018-05-12T01:52:04.047Z,11.40
2018-05-12T01:54:31.596Z,11.30
2018-05-12T01:56:59.171Z,11.20
2018-05-12T01:59:26.719Z,11.10
2018-05-12T02:01:54.300Z,11.20
2018-05-12T02:04:22.606Z,11.20
2018-05-12T02:06:50.933Z,11.10
2018-05-12T02:09:18.483Z,11.10
2018-05-12T02:11:46.046Z,11.10
2018-05-12T02:14:13.609Z,11.10
2018-05-12T02:16:41.180Z,11.20
2018-05-12T02:19:09.495Z,11.10
2018-05-12T02:21:37.836Z,11.10
2018-05-12T02:24:05.379Z,11.10
2018-05-12T02:26:32.946Z,11.00
2018-05-12T02:29:00.509Z,11.00
2018-05-12T02:31:28.082Z,11.00
2018-05-12T02:33:55.642Z,11.00
2018-05-12T02:36:23.226Z,11.00
2018-05-12T02:38:50.783Z,11.00
2018-05-12T02:41:31.030Z,10.90
2018-05-12T02:43:58.571Z,10.90
2018-05-12T02:46:26.135Z,10.90
2018-05-12T02:48:53.678Z,10.90
2018-05-12T02:51:22.310Z,10.90
2018-05-12T02:53:49.849Z,10.90
2018-05-12T02:56:17.413Z,10.90
2018-05-12T02:58:44.957Z,10.90
2018-05-12T03:01:12.523Z,10.90
2018-05-12T03:03:40.074Z,10.90
2018-05-12T03:06:07.634Z,10.90
2018-05-12T03:08:35.179Z,10.90
2018-05-12T03:11:02.755Z,10.80
2018-05-12T03:13:30.317Z,10.80
2018-05-12T03:15:58.657Z,10.60
2018-05-12T03:18:27.117Z,10.60
2018-05-12T03:20:55.447Z,10.50
2018-05-12T03:23:22.987Z,10.50
2018-05-12T03:25:50.577Z,10.40
2018-05-12T03:28:22.619Z,10.40
2018-05-12T03:30:50.207Z,10.40
2018-05-12T03:33:17.759Z,10.40
2018-05-12T03:35:45.306Z,10.40
2018-05-12T03:38:12.878Z,10.40
2018-05-12T03:40:40.418Z,10.40
2018-05-12T03:43:07.989Z,10.40
2018-05-12T03:45:35.603Z,10.40
2018-05-12T03:48:03.298Z,10.40
2018-05-12T03:50:30.924Z,10.40
2018-05-12T03:52:58.578Z,10.40
2018-05-12T03:55:26.253Z,10.30
2018-05-12T03:57:53.929Z,10.40
2018-05-12T04:00:21.572Z,10.40
2018-05-12T04:03:00.624Z,10.40
2018-05-12T04:05:39.979Z,10.40
2018-05-12T04:08:20.321Z,10.50
2018-05-12T04:11:00.389Z,10.50
2018-05-12T04:13:28.046Z,10.50
2018-05-12T04:15:55.653Z,10.40
2018-05-12T04:18:23.373Z,10.40
2018-05-12T04:20:50.961Z,10.40
2018-05-12T04:23:18.667Z,10.40
2018-05-12T04:25:46.322Z,10.50
2018-05-12T04:28:13.983Z,10.50
2018-05-12T04:30:41.655Z,10.50
2018-05-12T04:33:09.332Z,10.60
2018-05-12T04:35:36.980Z,10.60
2018-05-12T04:38:04.655Z,10.70
2018-05-12T04:40:32.303Z,10.80
2018-05-12T04:42:59.965Z,10.90
2018-05-12T04:45:27.600Z,11.00
2018-05-12T04:47:55.210Z,11.10
2018-05-12T04:50:36.815Z,11.20
2018-05-12T04:53:04.375Z,11.30
2018-05-12T04:55:31.927Z,11.50
2018-05-12T04:58:10.074Z,11.70
2018-05-12T05:00:38.424Z,12.20
2018-05-12T05:03:06.800Z,12.50
2018-05-12T05:05:34.358Z,12.50
2018-05-12T05:08:01.933Z,12.70
2018-05-12T05:10:29.482Z,12.80
2018-05-12T05:12:57.806Z,13.00
2018-05-12T05:15:26.111Z,13.00
2018-05-12T05:17:53.674Z,13.00
2018-05-12T05:20:21.221Z,13.00
2018-05-12T05:22:48.793Z,13.00
2018-05-12T05:25:16.373Z,13.10
2018-05-12T05:27:44.682Z,13.10
2018-05-12T05:30:13.025Z,13.30
2018-05-12T05:32:40.588Z,13.20
2018-05-12T05:35:09.007Z,13.60
2018-05-12T05:37:36.487Z,13.60
2018-05-12T05:40:04.049Z,13.80
2018-05-12T05:42:31.606Z,14.00
2018-05-12T05:44:59.182Z,14.20
2018-05-12T05:47:26.736Z,14.30
2018-05-12T05:49:54.301Z,14.20
2018-05-12T05:52:21.864Z,14.30
2018-05-12T05:54:49.437Z,14.30
2018-05-12T05:57:16.977Z,14.40
2018-05-12T05:59:44.554Z,14.40
2018-05-12T06:02:12.124Z,14.50
2018-05-12T06:04:40.482Z,14.50
2018-05-12T06:07:08.106Z,14.50
2018-05-12T06:09:36.396Z,14.60
2018-05-12T06:12:03.942Z,14.60
2018-05-12T06:14:32.277Z,14.80
2018-05-12T06:17:00.595Z,14.80
2018-05-12T06:19:28.928Z,14.80
2018-05-12T06:21:56.485Z,14.80
2018-05-12T06:24:24.823Z,14.90
2018-05-12T06:26:52.368Z,14.90
2018-05-12T06:29:20.700Z,15.00
2018-05-12T06:31:48.252Z,15.00
2018-05-12T06:34:15.824Z,15.10
2018-05-12T06:36:43.367Z,15.30
2018-05-12T06:39:10.943Z,15.40
2018-05-12T06:41:38.486Z,15.50
2018-05-12T06:44:06.063Z,15.70
2018-05-12T06:46:33.651Z,15.80
2018-05-12T06:49:02.092Z,15.80
2018-05-12T06:51:29.683Z,15.80
2018-05-12T06:53:57.246Z,15.90
2018-05-12T06:56:25.590Z,16.10
2018-05-12T06:58:53.135Z,16.10
2018-05-12T07:01:20.787Z,16.20
2018-05-12T07:03:48.284Z,16.20
2018-05-12T07:06:15.855Z,16.20
2018-05-12T07:08:43.403Z,16.20
2018-05-12T07:11:10.979Z,16.20
2018-05-12T07:13:39.389Z,16.40
2018-05-12T07:16:06.900Z,16.40
2018-05-12T07:18:34.449Z,16.60
2018-05-12T07:21:03.426Z,16.90
2018-05-12T07:23:30.979Z,16.90
2018-05-12T07:25:58.563Z,17.20
2018-05-12T07:28:26.115Z,17.30
2018-05-12T07:30:53.693Z,17.50
2018-05-12T07:33:21.248Z,17.70
2018-05-12T07:35:48.825Z,18.00
2018-05-12T07:38:16.362Z,18.20
2018-05-12T07:40:44.685Z,18.60
2018-05-12T07:43:12.995Z,18.80
2018-05-12T07:45:40.563Z,18.80
2018-05-12T07:48:08.340Z,18.90
2018-05-12T07:50:36.679Z,19.30
2018-05-12T07:53:04.223Z,19.30
2018-05-12T07:55:32.570Z,19.70
2018-05-12T07:58:00.132Z,19.70
2018-05-12T08:00:27.715Z,19.60
2018-05-12T08:02:56.032Z,20.00
2018-05-12T08:05:23.590Z,20.00
2018-05-12T08:07:51.149Z,20.30
2018-05-12T08:10:18.713Z,20.40
2018-05-12T08:12:46.294Z,20.40
2018-05-12T08:15:13.854Z,20.40
2018-05-12T08:17:41.421Z,20.60
2018-05-12T08:20:09.037Z,20.60
2018-05-12T08:22:36.562Z,20.80
2018-05-12T08:25:04.882Z,21.20
2018-05-12T08:27:32.447Z,21.10
2018-05-12T08:29:59.992Z,21.40
2018-05-12T08:32:27.565Z,21.60
2018-05-12T08:34:55.118Z,21.90
2018-05-12T08:37:22.695Z,21.90
2018-05-12T08:39:50.268Z,21.80
2018-05-12T08:42:17.835Z,21.90
2018-05-12T08:44:45.380Z,22.10
2018-05-12T08:47:12.944Z,22.40
2018-05-12T08:49:40.520Z,22.40
2018-05-12T08:52:08.090Z,22.40
2018-05-12T08:54:35.631Z,22.60
2018-05-12T08:57:04.000Z,22.90
2018-05-12T08:59:32.320Z,23.10
2018-05-12T09:02:00.655Z,23.30
2018-05-12T09:04:28.966Z,23.10
2018-05-12T09:06:57.301Z,23.30
2018-05-12T09:09:25.607Z,23.60
2018-05-12T09:11:53.165Z,23.60
2018-05-12T09:14:20.707Z,23.60
2018-05-12T09:16:48.270Z,23.30
2018-05-12T09:19:15.901Z,23.50
2018-05-12T09:21:43.412Z,23.50
2018-05-12T09:24:11.456Z,23.60
2018-05-12T09:26:39.019Z,23.80
2018-05-12T09:29:06.566Z,24.00
2018-05-12T09:31:34.915Z,24.50
2018-05-12T09:34:02.476Z,24.50
2018-05-12T09:36:30.055Z,24.60
2018-05-12T09:38:57.606Z,24.80
2018-05-12T09:41:25.182Z,25.00
2018-05-12T09:43:52.736Z,25.10
2018-05-12T09:46:20.287Z,25.20
2018-05-12T09:48:47.854Z,25.50
2018-05-12T09:51:15.395Z,25.70
2018-05-12T09:53:42.959Z,25.80
2018-05-12T09:56:10.508Z,25.70
2018-05-12T09:58:38.085Z,25.90
2018-05-12T10:01:05.631Z,26.00
2018-05-12T10:03:33.250Z,26.00
2018-05-12T10:06:01.535Z,26.30
2018-05-12T10:08:29.870Z,26.40
2018-05-12T10:10:57.416Z,26.40
2018-05-12T10:13:24.996Z,26.60
2018-05-12T10:15:53.315Z,26.60
2018-05-12T10:18:21.650Z,26.60
2018-05-12T10:20:49.226Z,26.60
2018-05-12T10:23:16.792Z,26.50
2018-05-12T10:25:44.338Z,26.50
2018-05-12T10:28:11.912Z,26.50
2018-05-12T10:30:39.463Z,26.50
2018-05-12T10:33:07.044Z,26.70
2018-05-12T10:35:35.367Z,27.10
2018-05-12T10:38:02.931Z,27.10
2018-05-12T10:40:30.489Z,27.40
2018-05-12T10:42:58.062Z,27.60
2018-05-12T10:45:26.474Z,27.70
2018-05-12T10:47:53.986Z,27.70
2018-05-12T10:50:21.522Z,27.70
2018-05-12T10:52:49.099Z,27.60
2018-05-12T10:55:16.647Z,27.60
2018-05-12T10:57:44.233Z,27.70
2018-05-12T11:00:11.785Z,27.70
2018-05-12T11:02:39.344Z,27.80
2018-05-12T11:05:06.886Z,27.90
2018-05-12T11:07:34.445Z,28.00
2018-05-12T11:10:01.987Z,28.20
2018-05-12T11:12:30.318Z,28.50
2018-05-12T11:14:57.862Z,28.50
2018-05-12T11:17:25.414Z,28.60
2018-05-12T11:19:52.977Z,28.50
2018-05-12T11:22:20.514Z,28.60
2018-05-12T11:24:48.076Z,28.40
2018-05-12T11:27:15.644Z,28.60
2018-05-12T11:29:43.204Z,28.70
2018-05-12T11:32:10.768Z,28.90
2018-05-12T11:34:38.342Z,28.90
2018-05-12T11:37:05.888Z,29.00
2018-05-12T11:39:33.453Z,28.80
2018-05-12T11:42:01.001Z,28.90
2018-05-12T11:44:28.613Z,28.90
2018-05-12T11:46:56.139Z,29.10
2018-05-12T11:49:23.708Z,29.20
2018-05-12T11:51:51.249Z,29.30
2018-05-12T11:54:18.815Z,29.40
2018-05-12T11:56:46.351Z,29.50
2018-05-12T11:59:13.937Z,29.70
2018-05-12T12:01:41.474Z,29.70
2018-05-12T12:04:09.049Z,29.90
2018-05-12T12:06:36.637Z,30.00
2018-05-12T12:09:04.188Z,29.80
2018-05-12T12:11:32.503Z,29.60
2018-05-12T12:14:00.823Z,29.60
2018-05-12T12:16:28.371Z,29.60
2018-05-12T12:18:55.954Z,29.70
2018-05-12T12:21:23.496Z,29.90
2018-05-12T12:23:51.058Z,30.00
2018-05-12T12:26:18.599Z,30.00
2018-05-12T12:28:46.155Z,29.90
2018-05-12T12:31:14.464Z,29.90
2018-05-12T12:33:42.030Z,29.90
2018-05-12T12:36:09.573Z,30.00
2018-05-12T12:38:37.140Z,30.00
2018-05-12T12:41:04.683Z,29.90
2018-05-12T12:43:32.247Z,29.90
2018-05-12T12:45:59.797Z,29.60
2018-05-12T12:48:27.375Z,29.50
2018-05-12T12:50:54.930Z,29.40
2018-05-12T12:53:22.489Z,29.20
2018-05-12T12:55:50.065Z,29.30
2018-05-12T12:58:17.681Z,29.40
2018-05-12T13:00:45.207Z,29.50
2018-05-12T13:03:12.741Z,29.70
2018-05-12T13:05:40.314Z,29.80
2018-05-12T13:08:07.852Z,30.00
2018-05-12T13:10:35.407Z,30.10
2018-05-12T13:13:02.950Z,30.10
2018-05-12T13:15:30.526Z,30.30
2018-05-12T13:17:58.148Z,30.40
2018-05-12T13:20:25.723Z,30.40
2018-05-12T13:22:53.257Z,30.40
2018-05-12T13:25:20.837Z,30.40
2018-05-12T13:27:48.415Z,30.60
2018-05-12T13:30:15.995Z,30.60
2018-05-12T13:32:43.524Z,30.50
2018-05-12T13:35:11.077Z,30.40
2018-05-12T13:37:39.388Z,30.70
2018-05-12T13:40:06.978Z,30.60
2018-05-12T13:42:34.517Z,30.80
2018-05-12T13:45:02.079Z,30.90
2018-05-12T13:47:29.624Z,30.70
2018-05-12T13:49:57.191Z,30.60
2018-05-12T13:52:25.489Z,30.60
2018-05-12T13:54:53.054Z,30.60
2018-05-12T13:57:20.590Z,30.80
2018-05-12T13:59:48.162Z,30.70
2018-05-12T14:02:15.706Z,30.60
2018-05-12T14:04:43.280Z,30.70
2018-05-12T14:07:10.820Z,30.90
2018-05-12T14:09:38.388Z,30.80
2018-05-12T14:12:06.685Z,30.80
2018-05-12T14:14:35.218Z,30.80
2018-05-12T14:17:02.775Z,30.70
2018-05-12T14:19:30.327Z,30.80
2018-05-12T14:21:57.894Z,30.80
2018-05-12T14:24:25.433Z,30.80
2018-05-12T14:26:53.767Z,30.70
2018-05-12T14:29:21.326Z,30.70
2018-05-12T14:31:48.895Z,30.80
2018-05-12T14:34:16.434Z,30.60
2018-05-12T14:36:43.986Z,30.70
2018-05-12T14:39:11.531Z,30.70
2018-05-12T14:41:39.173Z,30.80
2018-05-12T14:44:07.484Z,30.80
2018-05-12T14:46:35.046Z,30.80
2018-05-12T14:49:02.588Z,30.80
2018-05-12T14:51:32.111Z,30.70
2018-05-12T14:53:59.662Z,30.70
2018-05-12T14:56:27.230Z,30.60
2018-05-12T14:58:54.782Z,30.70
2018-05-12T15:01:22.341Z,30.70
2018-05-12T15:03:49.926Z,30.90
2018-05-12T15:06:17.494Z,30.90
2018-05-12T15:08:46.044Z,31.00
2018-05-12T15:11:13.615Z,30.90
2018-05-12T15:13:41.153Z,30.90
2018-05-12T15:16:08.730Z,30.80
2018-05-12T15:18:36.266Z,30.80
2018-05-12T15:21:05.781Z,30.70
2018-05-12T15:23:33.319Z,30.70
2018-05-12T15:26:01.652Z,30.70
2018-05-12T15:28:30.192Z,30.70
2018-05-12T15:30:57.814Z,30.80
2018-05-12T15:33:26.340Z,30.80
2018-05-12T15:35:53.916Z,30.80
2018-05-12T15:38:21.466Z,30.70
2018-05-12T15:40:49.101Z,30.70
2018-05-12T15:43:17.412Z,30.60
2018-05-12T15:45:45.384Z,30.60
2018-05-12T15:48:12.917Z,30.50
2018-05-12T15:50:41.240Z,30.40
2018-05-12T15:53:08.806Z,30.40
2018-05-12T15:55:36.356Z,30.30
2018-05-12T15:58:03.966Z,30.30
2018-05-12T16:00:32.269Z,30.80
2018-05-12T16:02:59.931Z,30.80
2018-05-12T16:05:27.402Z,31.10
2018-05-12T16:07:54.989Z,31.20
2018-05-12T16:10:22.539Z,31.30
2018-05-12T16:12:50.107Z,31.50
2018-05-12T16:15:17.646Z,31.60
2018-05-12T16:17:45.215Z,31.60
2018-05-12T16:20:12.759Z,31.70
2018-05-12T16:22:42.263Z,31.70
2018-05-12T16:25:09.818Z,31.70
2018-05-12T16:27:37.390Z,32.00
2018-05-12T16:30:04.940Z,32.20
2018-05-12T16:32:32.503Z,32.20
2018-05-12T16:35:00.053Z,32.30
2018-05-12T16:37:27.643Z,32.10
2018-05-12T16:39:55.206Z,32.20
2018-05-12T16:42:22.771Z,31.90
2018-05-12T16:44:50.330Z,31.70
2018-05-12T16:47:17.890Z,31.70
2018-05-12T16:49:45.437Z,31.70
2018-05-12T16:52:13.007Z,31.70
2018-05-12T16:54:40.559Z,31.60
2018-05-12T16:57:08.119Z,31.50
2018-05-12T16:59:35.656Z,31.20
2018-05-12T17:02:03.223Z,31.10
2018-05-12T17:04:30.767Z,31.00
2018-05-12T17:06:58.328Z,30.80
2018-05-12T17:09:25.879Z,30.50
2018-05-12T17:11:53.441Z,30.30
2018-05-12T17:14:21.035Z,30.10
2018-05-12T17:16:48.583Z,30.10
2018-05-12T17:19:16.149Z,30.20
2018-05-12T17:21:43.694Z,30.20
2018-05-12T17:24:11.267Z,30.30
2018-05-12T17:26:38.807Z,30.40
2018-05-12T17:29:06.451Z,30.50
2018-05-12T17:31:33.993Z,30.30
2018-05-12T17:34:02.355Z,30.20
2018-05-12T17:36:29.935Z,30.10
2018-05-12T17:38:57.580Z,30.00
2018-05-12T17:41:25.898Z,29.60
2018-05-12T17:43:54.201Z,29.60
2018-05-12T17:46:22.502Z,29.00
2018-05-12T17:48:51.055Z,29.00
2018-05-12T17:51:18.597Z,28.50
2018-05-12T17:53:46.158Z,27.90
2018-05-12T17:56:13.707Z,27.60
2018-05-12T17:58:41.279Z,27.50
2018-05-12T18:04:11.575Z,26.70
2018-05-12T18:09:21.139Z,26.00
2018-05-12T18:11:48.686Z,25.70
2018-05-12T18:14:16.254Z,25.30
2018-05-12T18:16:43.823Z,25.20
2018-05-12T18:19:11.437Z,25.00
2018-05-12T18:21:38.984Z,24.80
2018-05-12T18:24:07.326Z,24.20
2018-05-12T18:26:34.862Z,24.20
2018-05-12T18:29:02.440Z,24.00
2018-05-12T18:31:29.991Z,23.70
2018-05-12T18:33:57.552Z,23.40
2018-05-12T18:36:25.098Z,23.20
2018-05-12T18:38:52.666Z,23.00
2018-05-12T18:41:20.211Z,22.80
2018-05-12T18:43:47.791Z,22.60
2018-05-12T18:46:16.101Z,22.30
2018-05-12T18:48:44.439Z,22.20
2018-05-12T18:51:11.965Z,22.10
2018-05-12T18:53:39.546Z,22.00
2018-05-12T18:56:07.077Z,21.90
2018-05-12T18:58:35.406Z,21.70
2018-05-12T19:01:02.959Z,21.60
2018-05-12T19:03:31.286Z,21.40
2018-05-12T19:05:59.606Z,21.20
2018-05-12T19:08:27.225Z,21.10
2018-05-12T19:10:54.731Z,21.10
2018-05-12T19:13:22.301Z,21.00
2018-05-12T19:15:49.866Z,20.90
2018-05-12T19:18:17.398Z,20.90
2018-05-12T19:20:44.967Z,20.70
2018-05-12T19:23:12.519Z,20.70
2018-05-12T19:25:40.088Z,20.60
2018-05-12T19:28:07.622Z,20.50
2018-05-12T19:30:35.194Z,20.40
2018-05-12T19:33:02.749Z,20.20
2018-05-12T19:35:30.322Z,20.20
2018-05-12T19:37:57.859Z,20.10
2018-05-12T19:40:25.429Z,20.00
2018-05-12T19:42:54.003Z,19.90
2018-05-12T19:45:21.572Z,19.90
2018-05-12T19:47:49.130Z,19.80
2018-05-12T19:50:16.707Z,19.70
2018-05-12T19:52:44.262Z,19.60
2018-05-12T19:55:11.842Z,19.50
2018-05-12T19:57:39.394Z,19.50
2018-05-12T20:00:06.959Z,19.40
2018-05-12T20:02:34.503Z,19.40
2018-05-12T20:05:02.068Z,19.30
2018-05-12T20:07:29.623Z,19.40
2018-05-12T20:09:58.003Z,19.40
2018-05-12T20:12:25.566Z,19.30
2018-05-12T20:14:53.131Z,19.30
2018-05-12T20:17:20.670Z,19.20
2018-05-12T20:19:48.239Z,19.10
2018-05-12T20:22:15.783Z,19.10
2018-05-12T20:24:43.355Z,19.10
2018-05-12T20:27:10.908Z,19.10
2018-05-12T20:29:38.505Z,19.10
2018-05-12T20:32:06.054Z,19.00
2018-05-12T20:34:33.605Z,19.10
2018-05-12T20:37:01.948Z,19.20
2018-05-12T20:39:29.504Z,19.10
2018-05-12T20:41:57.075Z,19.20
2018-05-12T20:44:24.624Z,19.20
2018-05-12T20:46:52.185Z,19.20
2018-05-12T20:49:19.722Z,19.20
2018-05-12T20:51:48.038Z,19.20
2018-05-12T20:54:15.587Z,19.20
2018-05-12T20:56:43.159Z,19.20
2018-05-12T20:59:10.708Z,19.20
2018-05-12T21:01:38.273Z,19.20
2018-05-12T21:04:05.816Z,19.20
2018-05-12T21:06:33.382Z,19.20
2018-05-12T21:09:00.913Z,19.10
2018-05-12T21:11:29.247Z,18.90
2018-05-12T21:13:56.808Z,18.90
2018-05-12T21:16:24.397Z,18.80
2018-05-12T21:18:52.732Z,18.50
2018-05-12T21:21:20.310Z,18.50
2018-05-12T21:23:47.861Z,18.50
2018-05-12T21:26:15.435Z,18.40
2018-05-12T21:28:42.967Z,18.40
2018-05-12T21:31:10.572Z,18.40
2018-05-12T21:33:38.112Z,18.30
2018-05-12T21:36:05.678Z,18.10
2018-05-12T21:38:33.218Z,18.10
2018-05-12T21:41:00.796Z,18.00
2018-05-12T21:43:28.340Z,18.00
2018-05-12T21:45:55.898Z,17.90
2018-05-12T21:48:23.441Z,17.80
2018-05-12T21:50:51.019Z,17.80
2018-05-12T21:53:19.347Z,17.60
2018-05-12T21:55:47.669Z,17.60
2018-05-12T21:58:15.264Z,17.60
2018-05-12T22:00:42.797Z,17.50
2018-05-12T22:03:10.358Z,17.50
2018-05-12T22:05:37.911Z,17.50
2018-05-12T22:08:05.618Z,17.40
2018-05-12T22:10:33.088Z,17.30
2018-05-12T22:13:01.451Z,17.20
2018-05-12T22:15:29.755Z,17.30
2018-05-12T22:17:57.334Z,17.20
2018-05-12T22:20:24.879Z,17.30
2018-05-12T22:22:52.444Z,17.30
2018-05-12T22:25:19.994Z,17.30
2018-05-12T22:27:47.567Z,17.30
2018-05-12T22:30:15.115Z,17.30
2018-05-12T22:32:42.696Z,17.30
2018-05-12T22:35:10.246Z,17.30
2018-05-12T22:37:37.813Z,17.30
2018-05-12T22:40:05.372Z,17.40
2018-05-12T22:42:32.944Z,17.50
2018-05-12T22:45:00.498Z,17.50
2018-05-12T22:47:28.154Z,17.50
2018-05-12T22:49:56.423Z,17.50
2018-05-12T22:52:23.987Z,17.50
2018-05-12T22:54:51.530Z,17.50
2018-05-12T22:57:19.187Z,17.40
2018-05-12T22:59:46.656Z,17.50
2018-05-12T23:02:14.227Z,17.50
2018-05-12T23:04:41.782Z,17.40
2018-05-12T23:07:09.375Z,17.40
2018-05-12T23:09:36.927Z,17.30
2018-05-12T23:12:05.267Z,17.30
2018-05-12T23:14:32.800Z,17.30
2018-05-12T23:17:01.144Z,17.30
2018-05-12T23:19:28.693Z,17.20
2018-05-12T23:21:56.248Z,17.10
2018-05-12T23:24:23.814Z,17.00
2018-05-12T23:26:51.372Z,17.00
2018-05-12T23:29:19.721Z,17.00
2018-05-12T23:31:47.262Z,17.00
2018-05-12T23:34:15.584Z,16.80
2018-05-12T23:36:43.130Z,16.70
2018-05-12T23:39:10.697Z,16.70
2018-05-12T23:41:38.247Z,16.60
2018-05-12T23:44:05.810Z,16.70
2018-05-12T23:46:33.364Z,16.70
2018-05-12T23:49:00.944Z,16.60
2018-05-12T23:51:28.550Z,16.60
2018-05-12T23:53:56.111Z,16.60
2018-05-12T23:56:24.435Z,16.60
2018-05-12T23:58:52.011Z,16.50
